createdAt,value
2023-05-15T00:02:26.863Z,101332.31
2023-05-15T00:04:54.201Z,101327.09
2023-05-15T00:07:21.325Z,101323.59
2023-05-15T00:09:48.310Z,101318.38
2023-05-15T00:12:15.552Z,101327.22
2023-05-15T00:14:42.556Z,101316.72
2023-05-15T00:17:09.921Z,101326.47
2023-05-15T00:19:36.983Z,101330.06
2023-05-15T00:22:04.385Z,101328.31
2023-05-15T00:24:31.272Z,101321.38
2023-05-15T00:27:00.737Z,101324.09
2023-05-15T00:29:28.012Z,101318.88
2023-05-15T00:31:55.144Z,101313.66
2023-05-15T00:34:25.724Z,101312.00
2023-05-15T00:36:52.921Z,101305.88
2023-05-15T00:39:19.978Z,101310.41
2023-05-15T00:41:51.501Z,101301.63
2023-05-15T00:44:22.574Z,101303.44
2023-05-15T00:46:51.764Z,101303.50
2023-05-15T00:49:21.815Z,101307.88
2023-05-15T00:51:50.116Z,101312.38
2023-05-15T00:54:17.221Z,101305.34
2023-05-15T00:56:46.039Z,101301.06
2023-05-15T00:59:13.821Z,101292.31
2023-05-15T01:01:41.229Z,101302.97
2023-05-15T01:04:11.605Z,101292.47
2023-05-15T01:06:38.611Z,101287.25
2023-05-15T01:09:08.327Z,101278.50
2023-05-15T01:11:38.520Z,101286.47
2023-05-15T01:14:08.713Z,101286.47
2023-05-15T01:16:36.338Z,101280.41
2023-05-15T01:19:05.165Z,101283.06
2023-05-15T01:22:10.760Z,101283.06
2023-05-15T01:25:10.457Z,101289.31
2023-05-15T01:27:50.386Z,101287.59
2023-05-15T01:30:24.707Z,101299.06
2023-05-15T01:33:03.985Z,101282.50
2023-05-15T01:35:49.642Z,101290.53
2023-05-15T01:38:34.024Z,101300.25
2023-05-15T01:41:51.543Z,101297.81
2023-05-15T01:44:36.898Z,101293.50
2023-05-15T01:47:13.615Z,101293.56
2023-05-15T01:49:45.560Z,101289.19
2023-05-15T01:52:30.840Z,101284.88
2023-05-15T01:55:00.025Z,101283.97
2023-05-15T01:57:31.022Z,101283.06
2023-05-15T01:59:59.760Z,101282.19
2023-05-15T02:02:29.390Z,101279.53
2023-05-15T02:04:58.060Z,101285.81
2023-05-15T02:07:26.184Z,101288.53
2023-05-15T02:09:54.326Z,101282.34
2023-05-15T02:12:23.252Z,101281.63
2023-05-15T02:14:52.190Z,101279.91
2023-05-15T02:17:22.199Z,101279.06
2023-05-15T02:19:50.684Z,101286.19
2023-05-15T02:22:17.633Z,101281.00
2023-05-15T02:24:45.012Z,101277.50
2023-05-15T02:27:28.090Z,101276.59
2023-05-15T02:30:20.205Z,101281.03
2023-05-15T02:33:23.420Z,101274.97
2023-05-15T02:36:04.698Z,101282.91
2023-05-15T02:38:40.874Z,101283.00
2023-05-15T02:41:09.877Z,101283.91
2023-05-15T02:43:39.532Z,101284.81
2023-05-15T02:46:08.263Z,101277.88
2023-05-15T02:48:41.084Z,101282.28
2023-05-15T02:51:08.384Z,101285.84
2023-05-15T02:53:43.503Z,101281.50
2023-05-15T02:56:10.610Z,101277.16
2023-05-15T02:58:39.538Z,101279.91
2023-05-15T03:01:06.966Z,101271.25
2023-05-15T03:03:34.067Z,101266.03
2023-05-15T03:06:01.501Z,101268.63
2023-05-15T03:08:28.911Z,101266.94
2023-05-15T03:10:55.844Z,101258.13
2023-05-15T03:13:22.920Z,101259.03
2023-05-15T03:15:49.941Z,101262.56
2023-05-15T03:18:19.065Z,101263.47
2023-05-15T03:20:49.144Z,101264.38
2023-05-15T03:23:16.226Z,101267.00
2023-05-15T03:25:43.256Z,101272.34
2023-05-15T03:28:10.577Z,101266.22
2023-05-15T03:30:37.623Z,101262.63
2023-05-15T03:33:05.323Z,101264.38
2023-05-15T03:35:32.581Z,101265.31
2023-05-15T03:37:59.651Z,101266.16
2023-05-15T03:40:26.717Z,101265.22
2023-05-15T03:42:53.831Z,101262.63
2023-05-15T03:45:21.408Z,101263.47
2023-05-15T03:47:49.238Z,101252.81
2023-05-15T03:50:16.528Z,101259.75
2023-05-15T03:52:43.582Z,101257.97
2023-05-15T03:55:10.807Z,101260.59
2023-05-15T03:57:37.944Z,101263.94
2023-05-15T04:00:10.153Z,101271.69
2023-05-15T04:02:41.094Z,101277.00
2023-05-15T04:05:09.309Z,101266.41
2023-05-15T04:07:38.001Z,101274.22
2023-05-15T04:10:05.941Z,101276.78
2023-05-15T04:12:35.551Z,101267.25
2023-05-15T04:15:24.302Z,101283.03
2023-05-15T04:17:53.725Z,101285.66
2023-05-15T04:20:24.593Z,101276.91
2023-05-15T04:22:52.960Z,101290.03
2023-05-15T04:25:20.588Z,101284.72
2023-05-15T04:27:47.741Z,101278.53
2023-05-15T04:30:17.381Z,101285.53
2023-05-15T04:32:44.548Z,101276.59
2023-05-15T04:35:13.544Z,101283.56
2023-05-15T04:37:45.604Z,101281.78
2023-05-15T04:40:14.982Z,101286.97
2023-05-15T04:42:42.269Z,101292.19
2023-05-15T04:45:09.798Z,101289.44
2023-05-15T04:47:40.001Z,101287.59
2023-05-15T04:50:07.739Z,101288.41
2023-05-15T04:52:34.970Z,101287.44
2023-05-15T04:55:02.057Z,101288.16
2023-05-15T04:57:30.540Z,101288.16
2023-05-15T05:00:00.642Z,101285.38
2023-05-15T05:02:31.074Z,101283.44
2023-05-15T05:04:58.075Z,101286.03
2023-05-15T05:07:25.085Z,101291.97
2023-05-15T05:09:52.042Z,101297.03
2023-05-15T05:12:19.044Z,101302.13
2023-05-15T05:14:46.009Z,101309.28
2023-05-15T05:17:13.159Z,101308.25
2023-05-15T05:19:40.304Z,101313.84
2023-05-15T05:22:07.915Z,101314.06
2023-05-15T05:24:38.258Z,101308.72
2023-05-15T05:27:05.864Z,101312.59
2023-05-15T05:29:32.887Z,101321.06
2023-05-15T05:31:59.993Z,101322.66
2023-05-15T05:34:27.136Z,101314.44
2023-05-15T05:36:54.197Z,101321.78
2023-05-15T05:39:21.168Z,101326.88
2023-05-15T05:41:48.327Z,101323.22
2023-05-15T05:44:15.600Z,101323.97
2023-05-15T05:46:42.704Z,101327.16
2023-05-15T05:49:09.675Z,101325.00
2023-05-15T05:51:39.274Z,101316.50
2023-05-15T05:54:06.313Z,101323.53
2023-05-15T05:56:33.531Z,101333.00
2023-05-15T05:59:02.330Z,101334.66
2023-05-15T06:01:29.610Z,101337.22
2023-05-15T06:03:57.434Z,101336.88
2023-05-15T06:06:24.927Z,101339.16
2023-05-15T06:08:52.567Z,101327.13
2023-05-15T06:11:23.187Z,101331.34
2023-05-15T06:13:51.570Z,101336.88
2023-05-15T06:16:18.452Z,101341.75
2023-05-15T06:18:45.377Z,101343.69
2023-05-15T06:21:12.332Z,101336.44
2023-05-15T06:23:39.320Z,101335.28
2023-05-15T06:26:06.333Z,101336.63
2023-05-15T06:28:33.367Z,101335.41
2023-05-15T06:31:00.603Z,101334.28
2023-05-15T06:33:27.531Z,101333.47
2023-05-15T06:35:54.536Z,101327.81
2023-05-15T06:38:21.470Z,101334.56
2023-05-15T06:40:48.370Z,101333.72
2023-05-15T06:43:15.350Z,101326.75
2023-05-15T06:45:42.266Z,101326.59
2023-05-15T06:48:09.347Z,101335.28
2023-05-15T06:50:36.371Z,101329.75
2023-05-15T06:53:03.368Z,101326.75
2023-05-15T06:55:30.435Z,101328.16
2023-05-15T06:57:57.355Z,101337.41
2023-05-15T07:00:24.330Z,101338.56
2023-05-15T07:02:51.311Z,101341.22
2023-05-15T07:05:18.329Z,101336.53
2023-05-15T07:07:45.925Z,101338.31
2023-05-15T07:10:13.001Z,101333.56
2023-05-15T07:12:39.882Z,101330.56
2023-05-15T07:15:07.633Z,101339.09
2023-05-15T07:17:34.659Z,101337.09
2023-05-15T07:20:01.928Z,101328.06
2023-05-15T07:22:29.214Z,101332.16
2023-05-15T07:24:56.256Z,101337.75
2023-05-15T07:27:23.286Z,101335.56
2023-05-15T07:29:50.430Z,101330.97
2023-05-15T07:32:17.449Z,101334.06
2023-05-15T07:34:44.408Z,101329.94
2023-05-15T07:37:11.329Z,101325.00
2023-05-15T07:39:38.317Z,101322.13
2023-05-15T07:42:05.540Z,101322.63
2023-05-15T07:44:32.472Z,101323.63
2023-05-15T07:46:59.433Z,101325.47
2023-05-15T07:49:26.476Z,101322.63
2023-05-15T07:51:53.413Z,101320.03
2023-05-15T07:54:20.842Z,101317.03
2023-05-15T07:56:47.900Z,101322.78
2023-05-15T07:59:15.301Z,101312.06
2023-05-15T08:01:42.240Z,101325.34
2023-05-15T08:04:09.725Z,101322.28
2023-05-15T08:06:39.906Z,101319.31
2023-05-15T08:09:06.918Z,101322.00
2023-05-15T08:11:34.094Z,101321.66
2023-05-15T08:14:01.083Z,101323.28
2023-05-15T08:16:29.906Z,101324.84
2023-05-15T08:19:01.544Z,101317.78
2023-05-15T08:21:29.515Z,101322.91
2023-05-15T08:23:57.275Z,101327.88
2023-05-15T08:26:24.264Z,101316.00
2023-05-15T08:28:51.388Z,101304.59
2023-05-15T08:31:18.430Z,101304.38
2023-05-15T08:33:45.447Z,101304.09
2023-05-15T08:36:12.502Z,101300.91
2023-05-15T08:38:39.543Z,101317.16
2023-05-15T08:41:39.968Z,101302.84
2023-05-15T08:44:11.018Z,101300.25
2023-05-15T08:46:38.786Z,101301.59
2023-05-15T08:49:18.379Z,101302.88
2023-05-15T08:51:45.660Z,101295.44
2023-05-15T08:54:12.983Z,101296.88
2023-05-15T08:56:40.466Z,101295.44
2023-05-15T08:59:07.823Z,101290.66
2023-05-15T09:01:36.725Z,101283.16
2023-05-15T09:04:04.851Z,101286.66
2023-05-15T09:06:33.927Z,101288.63
2023-05-15T09:09:02.193Z,101281.06
2023-05-15T09:11:31.779Z,101282.38
2023-05-15T09:14:00.056Z,101281.81
2023-05-15T09:16:27.915Z,101279.50
2023-05-15T09:18:54.964Z,101280.97
2023-05-15T09:21:31.555Z,101282.94
2023-05-15T09:24:37.994Z,101286.81
2023-05-15T09:27:07.824Z,101296.44
2023-05-15T09:29:38.002Z,101295.34
2023-05-15T09:32:08.854Z,101296.81
2023-05-15T09:34:42.179Z,101287.81
2023-05-15T09:37:13.218Z,101293.00
2023-05-15T09:39:44.553Z,101285.53
2023-05-15T09:42:15.936Z,101289.22
2023-05-15T09:44:44.786Z,101291.09
2023-05-15T09:47:17.254Z,101289.03
2023-05-15T09:49:45.422Z,101290.13
2023-05-15T09:52:12.845Z,101292.75
2023-05-15T09:54:39.996Z,101287.38
2023-05-15T09:57:10.039Z,101289.25
2023-05-15T09:59:47.416Z,101283.41
2023-05-15T10:02:24.766Z,101282.84
2023-05-15T10:04:56.912Z,101285.25
2023-05-15T10:07:31.916Z,101275.63
2023-05-15T10:10:00.666Z,101271.81
2023-05-15T10:12:29.401Z,101264.63
2023-05-15T10:14:58.495Z,101269.88
2023-05-15T10:17:32.088Z,101267.34
2023-05-15T10:20:02.749Z,101277.28
2023-05-15T10:22:32.345Z,101276.97
2023-05-15T10:25:33.006Z,101270.19
2023-05-15T10:28:01.300Z,101272.81
2023-05-15T10:30:31.253Z,101272.53
2023-05-15T10:33:00.778Z,101283.00
2023-05-15T10:35:28.674Z,101271.78
2023-05-15T10:37:57.206Z,101271.56
2023-05-15T10:40:24.867Z,101267.97
2023-05-15T10:42:55.269Z,101270.72
2023-05-15T10:45:22.514Z,101275.28
2023-05-15T10:47:52.100Z,101277.53
2023-05-15T10:50:20.091Z,101269.91
2023-05-15T10:52:51.971Z,101270.00
2023-05-15T10:55:19.575Z,101270.47
2023-05-15T10:57:49.733Z,101277.47
2023-05-15T11:00:22.644Z,101276.28
2023-05-15T11:02:53.764Z,101276.47
2023-05-15T11:05:21.050Z,101274.00
2023-05-15T11:08:17.113Z,101267.94
2023-05-15T11:10:44.751Z,101271.47
2023-05-15T11:13:12.073Z,101277.66
2023-05-15T11:15:45.163Z,101266.94
2023-05-15T11:18:12.688Z,101278.63
2023-05-15T11:20:43.380Z,101271.94
2023-05-15T11:23:10.380Z,101273.84
2023-05-15T11:25:37.502Z,101272.97
2023-05-15T11:28:05.489Z,101273.81
2023-05-15T11:30:40.230Z,101283.34
2023-05-15T11:33:11.270Z,101272.13
2023-05-15T11:35:47.625Z,101276.31
2023-05-15T11:38:24.498Z,101279.16
2023-05-15T11:40:55.012Z,101287.38
2023-05-15T11:43:28.918Z,101281.03
2023-05-15T11:46:04.219Z,101286.09
2023-05-15T11:48:34.596Z,101276.84
2023-05-15T11:51:02.584Z,101273.03
2023-05-15T11:53:31.248Z,101270.47
2023-05-15T11:55:59.113Z,101272.63
2023-05-15T11:58:26.860Z,101261.28
2023-05-15T12:00:54.465Z,101264.53
2023-05-15T12:03:26.548Z,101268.56
2023-05-15T12:05:59.480Z,101272.84
2023-05-15T12:08:32.852Z,101275.91
2023-05-15T12:11:01.472Z,101264.66
2023-05-15T12:13:29.481Z,101274.84
2023-05-15T12:15:57.078Z,101266.41
2023-05-15T12:18:24.539Z,101266.19
2023-05-15T12:20:53.370Z,101275.19
2023-05-15T12:23:26.831Z,101266.00
2023-05-15T12:26:01.430Z,101269.63
2023-05-15T12:28:30.613Z,101262.81
2023-05-15T12:30:59.413Z,101268.94
2023-05-15T12:33:26.845Z,101263.88
2023-05-15T12:36:00.260Z,101271.88
2023-05-15T12:38:29.004Z,101284.69
2023-05-15T12:40:57.213Z,101271.84
2023-05-15T12:43:26.087Z,101278.59
2023-05-15T12:45:57.214Z,101275.41
2023-05-15T12:48:32.070Z,101276.38
2023-05-15T12:51:09.005Z,101269.16
2023-05-15T12:53:39.506Z,101277.94
2023-05-15T12:56:09.030Z,101268.56
2023-05-15T12:58:37.433Z,101271.75
2023-05-15T13:01:04.634Z,101280.50
2023-05-15T13:03:32.426Z,101284.75
2023-05-15T13:06:02.354Z,101288.81
2023-05-15T13:08:29.390Z,101283.72
2023-05-15T13:10:58.736Z,101288.00
2023-05-15T13:13:48.835Z,101292.31
2023-05-15T13:16:21.316Z,101289.56
2023-05-15T13:18:48.580Z,101288.88
2023-05-15T13:21:15.682Z,101291.16
2023-05-15T13:23:42.716Z,101291.50
2023-05-15T13:26:09.765Z,101296.34
2023-05-15T13:28:36.729Z,101299.25
2023-05-15T13:31:03.728Z,101293.97
2023-05-15T13:33:32.078Z,101291.59
2023-05-15T13:35:59.480Z,101294.19
2023-05-15T13:38:26.419Z,101291.97
2023-05-15T13:40:53.372Z,101289.75
2023-05-15T13:43:20.302Z,101299.13
2023-05-15T13:45:47.256Z,101290.88
2023-05-15T13:48:14.222Z,101270.69
2023-05-15T13:50:43.177Z,101285.00
2023-05-15T13:53:10.215Z,101271.44
2023-05-15T13:55:37.164Z,101286.47
2023-05-15T13:58:04.286Z,101278.63
2023-05-15T14:00:31.286Z,101275.81
2023-05-15T14:02:58.385Z,101274.91
2023-05-15T14:05:25.418Z,101271.03
2023-05-15T14:07:52.298Z,101265.72
2023-05-15T14:10:19.283Z,101269.69
2023-05-15T14:12:47.016Z,101267.50
2023-05-15T14:15:13.956Z,101267.47
2023-05-15T14:17:41.272Z,101261.25
2023-05-15T14:20:10.156Z,101264.06
2023-05-15T14:22:38.594Z,101265.81
2023-05-15T14:25:06.438Z,101260.47
2023-05-15T14:27:33.428Z,101276.19
2023-05-15T14:30:01.100Z,101265.91
2023-05-15T14:32:28.075Z,101265.22
2023-05-15T14:34:59.656Z,101269.34
2023-05-15T14:37:27.757Z,101262.28
2023-05-15T14:39:54.762Z,101271.47
2023-05-15T14:42:21.970Z,101264.22
2023-05-15T14:44:49.697Z,101261.06
2023-05-15T14:47:16.856Z,101273.50
2023-05-15T14:49:43.994Z,101268.50
2023-05-15T14:52:12.481Z,101279.66
2023-05-15T14:54:40.151Z,101266.66
2023-05-15T14:57:07.791Z,101261.25
2023-05-15T14:59:34.929Z,101259.69
2023-05-15T15:02:02.327Z,101264.22
2023-05-15T15:04:34.224Z,101276.34
2023-05-15T15:07:04.872Z,101272.44
2023-05-15T15:09:32.179Z,101275.97
2023-05-15T15:11:59.498Z,101268.81
2023-05-15T15:14:26.568Z,101270.81
2023-05-15T15:16:53.633Z,101272.44
2023-05-15T15:19:20.769Z,101279.69
2023-05-15T15:21:48.353Z,101288.53
2023-05-15T15:24:16.954Z,101283.97
2023-05-15T15:26:43.912Z,101283.72
2023-05-15T15:29:10.858Z,101280.44
2023-05-15T15:31:37.845Z,101294.41
2023-05-15T15:34:05.699Z,101285.16
2023-05-15T15:36:33.123Z,101290.75
2023-05-15T15:39:00.138Z,101285.91
2023-05-15T15:41:30.370Z,101291.72
2023-05-15T15:43:57.274Z,101296.97
2023-05-15T15:46:24.405Z,101293.91
2023-05-15T15:48:51.446Z,101302.84
2023-05-15T15:51:18.433Z,101297.97
2023-05-15T15:53:45.487Z,101304.09
2023-05-15T15:56:12.492Z,101309.91
2023-05-15T15:58:39.491Z,101317.84
2023-05-15T16:01:06.454Z,101317.22
2023-05-15T16:04:03.285Z,101315.81
2023-05-15T16:06:31.057Z,101316.28
2023-05-15T16:08:58.015Z,101303.28
2023-05-15T16:11:25.086Z,101310.19
2023-05-15T16:13:52.701Z,101315.50
2023-05-15T16:16:19.984Z,101336.00
2023-05-15T16:18:47.556Z,101317.81
2023-05-15T16:21:14.701Z,101319.56
2023-05-15T16:23:41.709Z,101323.25
2023-05-15T16:26:11.246Z,101336.81
2023-05-15T16:28:38.218Z,101324.50
2023-05-15T16:31:07.966Z,101329.28
2023-05-15T16:33:35.268Z,101326.38
2023-05-15T16:36:05.045Z,101326.25
2023-05-15T16:38:32.408Z,101334.38
2023-05-15T16:40:59.355Z,101328.22
2023-05-15T16:43:26.439Z,101328.13
2023-05-15T16:45:53.393Z,101338.09
2023-05-15T16:48:20.420Z,101338.88
2023-05-15T16:50:47.340Z,101337.69
2023-05-15T16:53:15.195Z,101342.41
2023-05-15T16:55:42.155Z,101332.91
2023-05-15T16:58:09.195Z,101338.59
2023-05-15T17:00:36.281Z,101332.84
2023-05-15T17:03:05.742Z,101349.09
2023-05-15T17:05:34.043Z,101343.53
2023-05-15T17:08:01.158Z,101342.88
2023-05-15T17:10:28.746Z,101339.75
2023-05-15T17:12:55.898Z,101349.06
2023-05-15T17:15:23.917Z,101360.00
2023-05-15T17:17:51.054Z,101351.25
2023-05-15T17:20:18.094Z,101356.66
2023-05-15T17:22:45.063Z,101354.06
2023-05-15T17:25:12.016Z,101356.91
2023-05-15T17:27:41.286Z,101356.16
2023-05-15T17:30:10.406Z,101358.09
2023-05-15T17:32:39.174Z,101368.03
2023-05-15T17:35:08.080Z,101357.47
2023-05-15T17:37:35.044Z,101367.16
2023-05-15T17:40:02.076Z,101378.81
2023-05-15T17:42:29.084Z,101367.50
2023-05-15T17:44:56.819Z,101370.31
2023-05-15T17:47:24.029Z,101378.25
2023-05-15T17:49:51.117Z,101383.50
2023-05-15T17:52:18.106Z,101379.09
2023-05-15T17:54:45.033Z,101377.59
2023-05-15T17:57:12.023Z,101383.78
2023-05-15T17:59:39.007Z,101389.28
2023-05-15T18:02:06.809Z,101393.91
2023-05-15T18:04:33.865Z,101390.50
2023-05-15T18:07:00.876Z,101390.69
2023-05-15T18:09:28.011Z,101392.69
2023-05-15T18:11:55.005Z,101409.63
2023-05-15T18:14:22.045Z,101399.28
2023-05-15T18:16:49.034Z,101393.22
2023-05-15T18:19:16.188Z,101401.22
2023-05-15T18:21:43.510Z,101403.09
2023-05-15T18:24:10.525Z,101413.88
2023-05-15T18:26:38.005Z,101410.38
2023-05-15T18:29:05.031Z,101418.44
2023-05-15T18:31:32.217Z,101412.34
2023-05-15T18:34:00.956Z,101408.13
2023-05-15T18:36:28.023Z,101409.31
2023-05-15T18:38:54.997Z,101418.25
2023-05-15T18:41:23.049Z,101420.09
2023-05-15T18:43:50.077Z,101421.06
2023-05-15T18:46:17.310Z,101424.69
2023-05-15T18:48:44.377Z,101428.28
2023-05-15T18:51:11.390Z,101426.56
2023-05-15T18:53:38.401Z,101438.97
2023-05-15T18:56:05.597Z,101438.19
2023-05-15T18:58:32.548Z,101447.19
2023-05-15T19:01:00.118Z,101444.63
2023-05-15T19:03:27.281Z,101447.47
2023-05-15T19:05:54.190Z,101446.84
2023-05-15T19:08:21.171Z,101447.81
2023-05-15T19:10:48.835Z,101449.72
2023-05-15T19:13:15.799Z,101455.19
2023-05-15T19:15:53.811Z,101450.94
2023-05-15T19:18:20.856Z,101452.00
2023-05-15T19:20:52.074Z,101465.34
2023-05-15T19:23:20.660Z,101461.06
2023-05-15T19:25:48.053Z,101462.91
2023-05-15T19:28:15.083Z,101463.00
2023-05-15T19:30:42.647Z,101464.78
2023-05-15T19:33:09.613Z,101460.38
2023-05-15T19:35:37.717Z,101466.56
2023-05-15T19:38:05.011Z,101467.41
2023-05-15T19:40:31.934Z,101474.44
2023-05-15T19:42:58.878Z,101471.84
2023-05-15T19:45:25.875Z,101477.09
2023-05-15T19:47:53.111Z,101482.25
2023-05-15T19:50:20.381Z,101477.66
2023-05-15T19:52:47.560Z,101497.78
2023-05-15T19:55:14.603Z,101491.63
2023-05-15T19:57:44.787Z,101492.53
2023-05-15T20:00:12.947Z,101508.47
2023-05-15T20:02:41.341Z,101504.28
2023-05-15T20:05:09.337Z,101507.06
2023-05-15T20:07:36.995Z,101508.16
2023-05-15T20:10:05.198Z,101511.03
2023-05-15T20:12:32.242Z,101514.00
2023-05-15T20:14:59.390Z,101516.84
2023-05-15T20:17:27.040Z,101518.84
2023-05-15T20:19:54.036Z,101526.84
2023-05-15T20:22:20.955Z,101517.41
2023-05-15T20:24:48.170Z,101519.25
2023-05-15T20:27:15.302Z,101511.34
2023-05-15T20:29:42.313Z,101515.81
2023-05-15T20:32:09.413Z,101515.00
2023-05-15T20:34:36.915Z,101518.47
2023-05-15T20:37:03.929Z,101517.66
2023-05-15T20:39:31.078Z,101520.34
2023-05-15T20:42:00.616Z,101528.31
2023-05-15T20:44:27.592Z,101536.13
2023-05-15T20:46:54.549Z,101532.63
2023-05-15T20:49:21.586Z,101536.97
2023-05-15T20:51:48.781Z,101531.63
2023-05-15T20:54:16.152Z,101532.47
2023-05-15T20:56:43.188Z,101533.38
2023-05-15T20:59:11.389Z,101536.03
2023-05-15T21:01:39.102Z,101531.69
2023-05-15T21:04:06.365Z,101529.13
2023-05-15T21:06:33.553Z,101534.41
2023-05-15T21:09:00.672Z,101528.31
2023-05-15T21:11:28.473Z,101525.66
2023-05-15T21:13:55.376Z,101538.03
2023-05-15T21:16:22.374Z,101517.75
2023-05-15T21:18:49.374Z,101528.38
2023-05-15T21:21:16.535Z,101524.81
2023-05-15T21:23:43.612Z,101532.69
2023-05-15T21:26:10.977Z,101533.59
2023-05-15T21:28:38.101Z,101531.78
2023-05-15T21:31:09.755Z,101543.13
2023-05-15T21:33:37.714Z,101551.91
2023-05-15T21:36:05.217Z,101549.44
2023-05-15T21:38:32.659Z,101551.28
2023-05-15T21:41:01.161Z,101549.53
2023-05-15T21:43:28.130Z,101570.78
2023-05-15T21:45:56.619Z,101573.50
2023-05-15T21:48:23.648Z,101577.25
2023-05-15T21:50:50.744Z,101582.72
2023-05-15T21:53:17.710Z,101593.44
2023-05-15T21:55:44.782Z,101586.03
2023-05-15T21:58:11.805Z,101597.03
2023-05-15T22:00:40.266Z,101602.69
2023-05-15T22:03:07.685Z,101609.91
2023-05-15T22:05:34.804Z,101604.81
2023-05-15T22:08:01.822Z,101614.56
2023-05-15T22:10:29.015Z,101610.22
2023-05-15T22:12:59.095Z,101612.94
2023-05-15T22:15:26.072Z,101617.28
2023-05-15T22:17:54.045Z,101620.81
2023-05-15T22:20:21.357Z,101621.66
2023-05-15T22:22:48.377Z,101630.50
2023-05-15T22:25:15.393Z,101628.75
2023-05-15T22:27:42.616Z,101630.56
2023-05-15T22:30:09.958Z,101629.66
2023-05-15T22:32:38.929Z,101633.22
2023-05-15T22:35:08.244Z,101641.13
2023-05-15T22:37:35.739Z,101641.13
2023-05-15T22:40:03.886Z,101654.28
2023-05-15T22:42:30.840Z,101649.06
2023-05-15T22:44:57.925Z,101660.47
2023-05-15T22:47:26.500Z,101662.22
2023-05-15T22:49:53.789Z,101664.84
2023-05-15T22:52:20.994Z,101664.84
2023-05-15T22:54:57.217Z,101679.72
2023-05-15T22:57:44.135Z,101677.97
2023-05-15T23:00:12.773Z,101685.03
2023-05-15T23:02:42.610Z,101677.13
2023-05-15T23:05:11.312Z,101685.91
2023-05-15T23:07:44.008Z,101682.34
2023-05-15T23:10:29.771Z,101676.25
2023-05-15T23:12:56.888Z,101671.88
2023-05-15T23:15:25.000Z,101678.81
2023-05-15T23:17:52.060Z,101678.91
2023-05-15T23:20:19.563Z,101681.56
2023-05-15T23:22:46.479Z,101673.75
2023-05-15T23:25:13.449Z,101673.81
2023-05-15T23:27:40.581Z,101686.13
2023-05-15T23:30:08.582Z,101684.44
2023-05-15T23:32:35.828Z,101693.19
2023-05-15T23:35:03.133Z,101695.03
2023-05-15T23:37:30.192Z,101686.31
2023-05-15T23:39:57.188Z,101689.84
2023-05-15T23:42:24.156Z,101689.91
2023-05-15T23:44:51.180Z,101696.97
2023-05-15T23:47:18.222Z,101688.25
2023-05-15T23:49:45.269Z,101699.69
2023-05-15T23:52:12.248Z,101699.75
2023-05-15T23:54:40.083Z,101703.31
2023-05-15T23:57:07.079Z,101704.19
2023-05-15T23:59:34.028Z,101705.94
